sensor_id;sensor_type;location;lat;lon;timestamp;P1;durP1;ratioP1;P2;durP2;ratioP2
67378;SDS011;54262;44.642;-0.974;2023-05-20T00:00:30;7.68;;;5.18;;
67378;SDS011;54262;44.642;-0.974;2023-05-20T00:02:56;6.50;;;5.43;;
67378;SDS011;54262;44.642;-0.974;2023-05-20T00:05:23;9.27;;;5.32;;
67378;SDS011;54262;44.642;-0.974;2023-05-20T00:07:49;10.68;;;5.15;;
67378;SDS011;54262;44.642;-0.974;2023-05-20T00:10:15;9.50;;;5.10;;
67378;SDS011;54262;44.642;-0.974;2023-05-20T00:12:40;6.85;;;5.50;;
67378;SDS011;54262;44.642;-0.974;2023-05-20T00:15:06;14.95;;;6.80;;
67378;SDS011;54262;44.642;-0.974;2023-05-20T00:17:32;11.75;;;5.25;;
67378;SDS011;54262;44.642;-0.974;2023-05-20T00:19:58;9.82;;;5.82;;
67378;SDS011;54262;44.642;-0.974;2023-05-20T00:22:24;6.63;;;5.95;;
67378;SDS011;54262;44.642;-0.974;2023-05-20T00:24:50;9.10;;;4.82;;
67378;SDS011;54262;44.642;-0.974;2023-05-20T00:27:16;5.80;;;5.00;;
67378;SDS011;54262;44.642;-0.974;2023-05-20T00:29:41;14.02;;;4.72;;
67378;SDS011;54262;44.642;-0.974;2023-05-20T00:32:07;6.93;;;4.82;;
67378;SDS011;54262;44.642;-0.974;2023-05-20T00:34:35;7.32;;;4.35;;
67378;SDS011;54262;44.642;-0.974;2023-05-20T00:37:00;9.02;;;5.57;;
67378;SDS011;54262;44.642;-0.974;2023-05-20T00:39:26;5.32;;;4.38;;
67378;SDS011;54262;44.642;-0.974;2023-05-20T00:41:54;10.23;;;5.00;;
67378;SDS011;54262;44.642;-0.974;2023-05-20T00:44:20;7.53;;;4.35;;
67378;SDS011;54262;44.642;-0.974;2023-05-20T00:46:48;8.43;;;5.15;;
67378;SDS011;54262;44.642;-0.974;2023-05-20T00:49:14;4.93;;;4.45;;
67378;SDS011;54262;44.642;-0.974;2023-05-20T00:51:40;5.28;;;4.15;;
67378;SDS011;54262;44.642;-0.974;2023-05-20T00:54:05;5.40;;;4.35;;
67378;SDS011;54262;44.642;-0.974;2023-05-20T00:56:31;5.80;;;4.90;;
67378;SDS011;54262;44.642;-0.974;2023-05-20T00:58:57;5.00;;;4.50;;
67378;SDS011;54262;44.642;-0.974;2023-05-20T01:01:22;7.22;;;5.00;;
67378;SDS011;54262;44.642;-0.974;2023-05-20T01:03:48;7.57;;;4.75;;
67378;SDS011;54262;44.642;-0.974;2023-05-20T01:06:15;5.45;;;5.03;;
67378;SDS011;54262;44.642;-0.974;2023-05-20T01:08:40;10.98;;;4.35;;
67378;SDS011;54262;44.642;-0.974;2023-05-20T01:11:10;6.85;;;4.38;;
67378;SDS011;54262;44.642;-0.974;2023-05-20T01:13:53;9.98;;;4.38;;
67378;SDS011;54262;44.642;-0.974;2023-05-20T01:16:25;7.80;;;4.60;;
67378;SDS011;54262;44.642;-0.974;2023-05-20T01:18:52;8.90;;;4.65;;
67378;SDS011;54262;44.642;-0.974;2023-05-20T01:21:21;5.53;;;4.60;;
67378;SDS011;54262;44.642;-0.974;2023-05-20T01:23:47;11.18;;;4.82;;
67378;SDS011;54262;44.642;-0.974;2023-05-20T01:26:13;4.72;;;4.43;;
67378;SDS011;54262;44.642;-0.974;2023-05-20T01:28:39;8.77;;;5.00;;
67378;SDS011;54262;44.642;-0.974;2023-05-20T01:31:10;6.35;;;4.57;;
67378;SDS011;54262;44.642;-0.974;2023-05-20T01:33:42;9.27;;;4.67;;
67378;SDS011;54262;44.642;-0.974;2023-05-20T01:36:12;6.63;;;4.93;;
67378;SDS011;54262;44.642;-0.974;2023-05-20T01:38:38;4.55;;;4.25;;
67378;SDS011;54262;44.642;-0.974;2023-05-20T01:41:05;4.50;;;4.20;;
67378;SDS011;54262;44.642;-0.974;2023-05-20T01:43:33;5.65;;;5.15;;
67378;SDS011;54262;44.642;-0.974;2023-05-20T01:45:59;5.03;;;4.70;;
67378;SDS011;54262;44.642;-0.974;2023-05-20T01:48:26;5.03;;;4.55;;
67378;SDS011;54262;44.642;-0.974;2023-05-20T01:50:52;9.95;;;4.55;;
67378;SDS011;54262;44.642;-0.974;2023-05-20T01:53:18;10.48;;;5.45;;
67378;SDS011;54262;44.642;-0.974;2023-05-20T01:55:43;5.65;;;5.05;;
67378;SDS011;54262;44.642;-0.974;2023-05-20T01:58:09;5.80;;;5.07;;
67378;SDS011;54262;44.642;-0.974;2023-05-20T02:00:35;8.45;;;4.60;;
67378;SDS011;54262;44.642;-0.974;2023-05-20T02:03:00;6.00;;;4.25;;
67378;SDS011;54262;44.642;-0.974;2023-05-20T02:05:27;5.28;;;4.85;;
67378;SDS011;54262;44.642;-0.974;2023-05-20T02:07:53;7.82;;;4.60;;
67378;SDS011;54262;44.642;-0.974;2023-05-20T02:10:19;9.75;;;4.78;;
67378;SDS011;54262;44.642;-0.974;2023-05-20T02:12:45;7.53;;;4.32;;
67378;SDS011;54262;44.642;-0.974;2023-05-20T02:15:11;6.60;;;4.20;;
67378;SDS011;54262;44.642;-0.974;2023-05-20T02:17:37;6.88;;;4.78;;
67378;SDS011;54262;44.642;-0.974;2023-05-20T02:20:03;10.18;;;4.60;;
67378;SDS011;54262;44.642;-0.974;2023-05-20T02:22:31;8.93;;;5.13;;
67378;SDS011;54262;44.642;-0.974;2023-05-20T02:24:57;5.60;;;4.30;;
67378;SDS011;54262;44.642;-0.974;2023-05-20T02:27:22;5.50;;;5.10;;
67378;SDS011;54262;44.642;-0.974;2023-05-20T02:29:48;4.65;;;4.35;;
67378;SDS011;54262;44.642;-0.974;2023-05-20T02:32:14;8.18;;;4.95;;
67378;SDS011;54262;44.642;-0.974;2023-05-20T02:34:39;5.90;;;4.93;;
67378;SDS011;54262;44.642;-0.974;2023-05-20T02:37:07;8.20;;;6.00;;
67378;SDS011;54262;44.642;-0.974;2023-05-20T02:39:33;8.02;;;5.72;;
67378;SDS011;54262;44.642;-0.974;2023-05-20T02:41:59;7.15;;;5.07;;
67378;SDS011;54262;44.642;-0.974;2023-05-20T02:44:26;6.25;;;5.15;;
67378;SDS011;54262;44.642;-0.974;2023-05-20T02:46:52;7.93;;;5.47;;
67378;SDS011;54262;44.642;-0.974;2023-05-20T02:49:18;6.93;;;5.25;;
67378;SDS011;54262;44.642;-0.974;2023-05-20T02:51:43;5.20;;;4.75;;
67378;SDS011;54262;44.642;-0.974;2023-05-20T02:54:09;6.53;;;5.03;;
67378;SDS011;54262;44.642;-0.974;2023-05-20T02:56:35;5.60;;;4.50;;
67378;SDS011;54262;44.642;-0.974;2023-05-20T02:59:00;5.03;;;4.63;;
67378;SDS011;54262;44.642;-0.974;2023-05-20T03:01:27;7.50;;;5.10;;
67378;SDS011;54262;44.642;-0.974;2023-05-20T03:03:53;5.90;;;5.35;;
67378;SDS011;54262;44.642;-0.974;2023-05-20T03:06:19;5.65;;;4.60;;
67378;SDS011;54262;44.642;-0.974;2023-05-20T03:08:44;4.72;;;4.32;;
67378;SDS011;54262;44.642;-0.974;2023-05-20T03:11:10;6.05;;;4.88;;
67378;SDS011;54262;44.642;-0.974;2023-05-20T03:13:36;7.38;;;5.28;;
67378;SDS011;54262;44.642;-0.974;2023-05-20T03:16:01;4.80;;;4.38;;
67378;SDS011;54262;44.642;-0.974;2023-05-20T03:18:27;4.75;;;4.35;;
67378;SDS011;54262;44.642;-0.974;2023-05-20T03:20:53;9.52;;;5.63;;
67378;SDS011;54262;44.642;-0.974;2023-05-20T03:23:19;6.85;;;4.85;;
67378;SDS011;54262;44.642;-0.974;2023-05-20T03:25:45;5.03;;;4.55;;
67378;SDS011;54262;44.642;-0.974;2023-05-20T03:28:11;5.68;;;5.28;;
67378;SDS011;54262;44.642;-0.974;2023-05-20T03:30:37;12.65;;;5.15;;
67378;SDS011;54262;44.642;-0.974;2023-05-20T03:33:02;7.13;;;4.88;;
67378;SDS011;54262;44.642;-0.974;2023-05-20T03:35:29;5.25;;;4.75;;
67378;SDS011;54262;44.642;-0.974;2023-05-20T03:37:58;7.85;;;5.07;;
67378;SDS011;54262;44.642;-0.974;2023-05-20T03:40:25;6.63;;;5.15;;
67378;SDS011;54262;44.642;-0.974;2023-05-20T03:42:51;7.03;;;4.95;;
67378;SDS011;54262;44.642;-0.974;2023-05-20T03:45:19;9.27;;;4.45;;
67378;SDS011;54262;44.642;-0.974;2023-05-20T03:47:45;4.90;;;4.60;;
67378;SDS011;54262;44.642;-0.974;2023-05-20T03:50:10;4.85;;;4.50;;
67378;SDS011;54262;44.642;-0.974;2023-05-20T03:52:36;8.45;;;5.32;;
67378;SDS011;54262;44.642;-0.974;2023-05-20T03:55:02;6.97;;;4.78;;
67378;SDS011;54262;44.642;-0.974;2023-05-20T03:57:28;6.50;;;5.85;;
67378;SDS011;54262;44.642;-0.974;2023-05-20T03:59:54;6.90;;;5.20;;
67378;SDS011;54262;44.642;-0.974;2023-05-20T04:02:20;6.50;;;4.80;;
67378;SDS011;54262;44.642;-0.974;2023-05-20T04:04:45;7.05;;;4.95;;
67378;SDS011;54262;44.642;-0.974;2023-05-20T04:07:11;10.80;;;5.78;;
67378;SDS011;54262;44.642;-0.974;2023-05-20T04:09:37;9.57;;;5.40;;
67378;SDS011;54262;44.642;-0.974;2023-05-20T04:12:03;5.65;;;4.63;;
67378;SDS011;54262;44.642;-0.974;2023-05-20T04:14:30;5.78;;;5.00;;
67378;SDS011;54262;44.642;-0.974;2023-05-20T04:16:58;5.60;;;5.18;;
67378;SDS011;54262;44.642;-0.974;2023-05-20T04:19:26;7.00;;;5.70;;
67378;SDS011;54262;44.642;-0.974;2023-05-20T04:21:52;5.28;;;4.78;;
67378;SDS011;54262;44.642;-0.974;2023-05-20T04:24:18;6.07;;;5.63;;
67378;SDS011;54262;44.642;-0.974;2023-05-20T04:26:44;11.10;;;5.78;;
67378;SDS011;54262;44.642;-0.974;2023-05-20T04:29:09;10.43;;;5.55;;
67378;SDS011;54262;44.642;-0.974;2023-05-20T04:31:35;10.75;;;5.18;;
67378;SDS011;54262;44.642;-0.974;2023-05-20T04:34:02;6.03;;;5.72;;
67378;SDS011;54262;44.642;-0.974;2023-05-20T04:36:29;5.35;;;5.00;;
67378;SDS011;54262;44.642;-0.974;2023-05-20T04:38:57;12.00;;;5.50;;
67378;SDS011;54262;44.642;-0.974;2023-05-20T04:41:22;5.80;;;5.22;;
67378;SDS011;54262;44.642;-0.974;2023-05-20T04:43:48;5.60;;;5.18;;
67378;SDS011;54262;44.642;-0.974;2023-05-20T04:46:16;4.93;;;4.63;;
67378;SDS011;54262;44.642;-0.974;2023-05-20T04:48:41;5.45;;;4.90;;
67378;SDS011;54262;44.642;-0.974;2023-05-20T04:51:12;12.90;;;5.55;;
67378;SDS011;54262;44.642;-0.974;2023-05-20T04:53:37;5.20;;;4.90;;
67378;SDS011;54262;44.642;-0.974;2023-05-20T04:56:04;5.65;;;5.25;;
67378;SDS011;54262;44.642;-0.974;2023-05-20T04:58:30;6.53;;;5.22;;
67378;SDS011;54262;44.642;-0.974;2023-05-20T05:00:57;7.32;;;6.57;;
67378;SDS011;54262;44.642;-0.974;2023-05-20T05:03:23;6.20;;;5.50;;
67378;SDS011;54262;44.642;-0.974;2023-05-20T05:05:48;12.75;;;5.43;;
67378;SDS011;54262;44.642;-0.974;2023-05-20T05:08:14;5.97;;;5.22;;
67378;SDS011;54262;44.642;-0.974;2023-05-20T05:10:41;6.00;;;5.50;;
67378;SDS011;54262;44.642;-0.974;2023-05-20T05:13:06;5.38;;;4.97;;
67378;SDS011;54262;44.642;-0.974;2023-05-20T05:15:32;9.77;;;4.78;;
67378;SDS011;54262;44.642;-0.974;2023-05-20T05:17:58;5.10;;;4.70;;
67378;SDS011;54262;44.642;-0.974;2023-05-20T05:20:23;6.00;;;5.40;;
67378;SDS011;54262;44.642;-0.974;2023-05-20T05:22:49;6.65;;;5.18;;
67378;SDS011;54262;44.642;-0.974;2023-05-20T05:25:15;5.35;;;4.70;;
67378;SDS011;54262;44.642;-0.974;2023-05-20T05:27:40;7.50;;;5.40;;
67378;SDS011;54262;44.642;-0.974;2023-05-20T05:30:06;6.85;;;4.70;;
67378;SDS011;54262;44.642;-0.974;2023-05-20T05:32:32;5.22;;;4.80;;
67378;SDS011;54262;44.642;-0.974;2023-05-20T05:34:58;9.35;;;5.05;;
67378;SDS011;54262;44.642;-0.974;2023-05-20T05:37:24;5.60;;;5.25;;
67378;SDS011;54262;44.642;-0.974;2023-05-20T05:39:52;5.63;;;5.28;;
67378;SDS011;54262;44.642;-0.974;2023-05-20T05:42:18;5.63;;;5.13;;
67378;SDS011;54262;44.642;-0.974;2023-05-20T05:44:44;7.85;;;4.80;;
67378;SDS011;54262;44.642;-0.974;2023-05-20T05:47:12;5.47;;;4.97;;
67378;SDS011;54262;44.642;-0.974;2023-05-20T05:49:37;7.80;;;5.20;;
67378;SDS011;54262;44.642;-0.974;2023-05-20T05:52:03;6.53;;;6.03;;
67378;SDS011;54262;44.642;-0.974;2023-05-20T05:54:29;5.97;;;5.57;;
67378;SDS011;54262;44.642;-0.974;2023-05-20T05:56:54;6.55;;;5.97;;
67378;SDS011;54262;44.642;-0.974;2023-05-20T05:59:20;5.30;;;4.70;;
67378;SDS011;54262;44.642;-0.974;2023-05-20T06:01:46;5.55;;;5.13;;
67378;SDS011;54262;44.642;-0.974;2023-05-20T06:04:12;5.40;;;4.85;;
67378;SDS011;54262;44.642;-0.974;2023-05-20T06:06:39;4.85;;;4.55;;
67378;SDS011;54262;44.642;-0.974;2023-05-20T06:09:05;6.45;;;4.53;;
67378;SDS011;54262;44.642;-0.974;2023-05-20T06:11:30;4.93;;;4.53;;
67378;SDS011;54262;44.642;-0.974;2023-05-20T06:13:56;4.47;;;4.18;;
67378;SDS011;54262;44.642;-0.974;2023-05-20T06:16:22;4.05;;;3.75;;
67378;SDS011;54262;44.642;-0.974;2023-05-20T06:18:48;3.80;;;3.60;;
67378;SDS011;54262;44.642;-0.974;2023-05-20T06:21:14;4.75;;;4.38;;
67378;SDS011;54262;44.642;-0.974;2023-05-20T06:23:40;4.13;;;3.67;;
67378;SDS011;54262;44.642;-0.974;2023-05-20T06:26:06;4.85;;;3.40;;
67378;SDS011;54262;44.642;-0.974;2023-05-20T06:28:32;3.80;;;3.40;;
67378;SDS011;54262;44.642;-0.974;2023-05-20T06:30:58;4.38;;;4.07;;
67378;SDS011;54262;44.642;-0.974;2023-05-20T06:33:24;4.30;;;3.40;;
67378;SDS011;54262;44.642;-0.974;2023-05-20T06:35:51;3.60;;;3.30;;
67378;SDS011;54262;44.642;-0.974;2023-05-20T06:38:17;4.50;;;3.65;;
67378;SDS011;54262;44.642;-0.974;2023-05-20T06:40:46;6.32;;;4.10;;
67378;SDS011;54262;44.642;-0.974;2023-05-20T06:43:15;4.63;;;3.97;;
67378;SDS011;54262;44.642;-0.974;2023-05-20T06:45:41;5.05;;;3.67;;
67378;SDS011;54262;44.642;-0.974;2023-05-20T06:48:10;4.03;;;3.72;;
67378;SDS011;54262;44.642;-0.974;2023-05-20T06:50:36;4.57;;;3.70;;
67378;SDS011;54262;44.642;-0.974;2023-05-20T06:53:02;3.53;;;3.22;;
67378;SDS011;54262;44.642;-0.974;2023-05-20T06:55:28;4.13;;;3.10;;
67378;SDS011;54262;44.642;-0.974;2023-05-20T06:57:54;6.03;;;3.38;;
67378;SDS011;54262;44.642;-0.974;2023-05-20T07:00:20;3.92;;;3.53;;
67378;SDS011;54262;44.642;-0.974;2023-05-20T07:02:45;4.05;;;3.25;;
67378;SDS011;54262;44.642;-0.974;2023-05-20T07:05:11;3.05;;;2.55;;
67378;SDS011;54262;44.642;-0.974;2023-05-20T07:07:37;4.13;;;3.33;;
67378;SDS011;54262;44.642;-0.974;2023-05-20T07:10:03;4.68;;;2.90;;
67378;SDS011;54262;44.642;-0.974;2023-05-20T07:12:32;2.90;;;2.70;;
67378;SDS011;54262;44.642;-0.974;2023-05-20T07:14:58;4.80;;;2.85;;
67378;SDS011;54262;44.642;-0.974;2023-05-20T07:17:24;3.85;;;3.25;;
67378;SDS011;54262;44.642;-0.974;2023-05-20T07:19:50;2.60;;;2.38;;
67378;SDS011;54262;44.642;-0.974;2023-05-20T07:22:16;3.15;;;2.85;;
67378;SDS011;54262;44.642;-0.974;2023-05-20T07:24:42;3.70;;;3.40;;
67378;SDS011;54262;44.642;-0.974;2023-05-20T07:27:08;2.65;;;2.45;;
67378;SDS011;54262;44.642;-0.974;2023-05-20T07:29:34;2.50;;;2.30;;
67378;SDS011;54262;44.642;-0.974;2023-05-20T07:32:00;3.63;;;2.53;;
67378;SDS011;54262;44.642;-0.974;2023-05-20T07:34:26;4.88;;;3.38;;
67378;SDS011;54262;44.642;-0.974;2023-05-20T07:36:52;3.00;;;2.80;;
67378;SDS011;54262;44.642;-0.974;2023-05-20T07:39:18;3.83;;;2.45;;
67378;SDS011;54262;44.642;-0.974;2023-05-20T07:41:46;4.50;;;2.70;;
67378;SDS011;54262;44.642;-0.974;2023-05-20T07:44:11;2.22;;;2.13;;
67378;SDS011;54262;44.642;-0.974;2023-05-20T07:46:37;3.25;;;3.03;;
67378;SDS011;54262;44.642;-0.974;2023-05-20T07:49:06;5.45;;;2.78;;
67378;SDS011;54262;44.642;-0.974;2023-05-20T07:51:32;3.03;;;2.83;;
67378;SDS011;54262;44.642;-0.974;2023-05-20T07:53:57;2.78;;;2.58;;
67378;SDS011;54262;44.642;-0.974;2023-05-20T07:56:23;2.75;;;2.55;;
67378;SDS011;54262;44.642;-0.974;2023-05-20T07:58:52;2.85;;;2.65;;
67378;SDS011;54262;44.642;-0.974;2023-05-20T08:01:22;7.18;;;2.78;;
67378;SDS011;54262;44.642;-0.974;2023-05-20T08:03:48;3.00;;;2.80;;
67378;SDS011;54262;44.642;-0.974;2023-05-20T08:06:14;3.53;;;2.88;;
67378;SDS011;54262;44.642;-0.974;2023-05-20T08:08:41;3.40;;;3.10;;
67378;SDS011;54262;44.642;-0.974;2023-05-20T08:11:07;4.97;;;2.78;;
67378;SDS011;54262;44.642;-0.974;2023-05-20T08:13:33;3.25;;;2.97;;
67378;SDS011;54262;44.642;-0.974;2023-05-20T08:15:58;3.15;;;2.40;;
67378;SDS011;54262;44.642;-0.974;2023-05-20T08:18:25;2.65;;;2.40;;
67378;SDS011;54262;44.642;-0.974;2023-05-20T08:20:51;5.10;;;2.88;;
67378;SDS011;54262;44.642;-0.974;2023-05-20T08:23:17;2.92;;;2.70;;
67378;SDS011;54262;44.642;-0.974;2023-05-20T08:25:42;5.80;;;3.30;;
67378;SDS011;54262;44.642;-0.974;2023-05-20T08:28:10;3.03;;;2.83;;
67378;SDS011;54262;44.642;-0.974;2023-05-20T08:30:36;3.17;;;2.97;;
67378;SDS011;54262;44.642;-0.974;2023-05-20T08:33:02;8.60;;;3.13;;
67378;SDS011;54262;44.642;-0.974;2023-05-20T08:35:28;4.88;;;2.88;;
67378;SDS011;54262;44.642;-0.974;2023-05-20T08:37:53;2.63;;;2.20;;
67378;SDS011;54262;44.642;-0.974;2023-05-20T08:40:19;2.88;;;2.67;;
67378;SDS011;54262;44.642;-0.974;2023-05-20T08:42:48;6.20;;;2.63;;
67378;SDS011;54262;44.642;-0.974;2023-05-20T08:45:17;2.72;;;2.50;;
67378;SDS011;54262;44.642;-0.974;2023-05-20T08:47:44;4.93;;;3.03;;
67378;SDS011;54262;44.642;-0.974;2023-05-20T08:50:13;2.80;;;2.55;;
67378;SDS011;54262;44.642;-0.974;2023-05-20T08:52:41;4.28;;;3.03;;
67378;SDS011;54262;44.642;-0.974;2023-05-20T08:55:10;5.00;;;2.70;;
67378;SDS011;54262;44.642;-0.974;2023-05-20T08:57:46;4.22;;;2.63;;
67378;SDS011;54262;44.642;-0.974;2023-05-20T09:00:15;5.13;;;3.22;;
67378;SDS011;54262;44.642;-0.974;2023-05-20T09:02:43;2.67;;;2.47;;
67378;SDS011;54262;44.642;-0.974;2023-05-20T09:05:09;4.38;;;3.10;;
67378;SDS011;54262;44.642;-0.974;2023-05-20T09:07:35;7.60;;;3.20;;
67378;SDS011;54262;44.642;-0.974;2023-05-20T09:10:02;2.60;;;2.40;;
67378;SDS011;54262;44.642;-0.974;2023-05-20T09:12:28;2.78;;;2.63;;
67378;SDS011;54262;44.642;-0.974;2023-05-20T09:14:54;4.78;;;2.95;;
67378;SDS011;54262;44.642;-0.974;2023-05-20T09:17:23;7.80;;;3.30;;
67378;SDS011;54262;44.642;-0.974;2023-05-20T09:19:49;3.53;;;2.85;;
67378;SDS011;54262;44.642;-0.974;2023-05-20T09:22:25;4.60;;;2.95;;
67378;SDS011;54262;44.642;-0.974;2023-05-20T09:24:52;2.85;;;2.65;;
67378;SDS011;54262;44.642;-0.974;2023-05-20T09:27:20;3.33;;;2.80;;
67378;SDS011;54262;44.642;-0.974;2023-05-20T09:29:49;2.97;;;2.78;;
67378;SDS011;54262;44.642;-0.974;2023-05-20T09:32:16;6.55;;;3.08;;
67378;SDS011;54262;44.642;-0.974;2023-05-20T09:34:45;4.60;;;2.58;;
67378;SDS011;54262;44.642;-0.974;2023-05-20T09:37:11;3.88;;;3.45;;
67378;SDS011;54262;44.642;-0.974;2023-05-20T09:42:21;3.05;;;2.60;;
67378;SDS011;54262;44.642;-0.974;2023-05-20T09:45:10;5.40;;;3.13;;
67378;SDS011;54262;44.642;-0.974;2023-05-20T09:47:38;3.50;;;3.17;;
67378;SDS011;54262;44.642;-0.974;2023-05-20T09:50:06;3.08;;;2.88;;
67378;SDS011;54262;44.642;-0.974;2023-05-20T09:52:36;3.45;;;3.22;;
67378;SDS011;54262;44.642;-0.974;2023-05-20T09:55:03;3.83;;;2.65;;
67378;SDS011;54262;44.642;-0.974;2023-05-20T09:57:33;3.33;;;2.80;;
67378;SDS011;54262;44.642;-0.974;2023-05-20T10:00:00;5.28;;;2.90;;
67378;SDS011;54262;44.642;-0.974;2023-05-20T10:02:26;3.60;;;2.78;;
67378;SDS011;54262;44.642;-0.974;2023-05-20T10:04:52;2.72;;;2.38;;
67378;SDS011;54262;44.642;-0.974;2023-05-20T10:10:12;4.22;;;2.80;;
67378;SDS011;54262;44.642;-0.974;2023-05-20T10:20:47;4.20;;;2.70;;
67378;SDS011;54262;44.642;-0.974;2023-05-20T10:23:20;6.75;;;3.30;;
67378;SDS011;54262;44.642;-0.974;2023-05-20T10:25:52;4.75;;;2.80;;
67378;SDS011;54262;44.642;-0.974;2023-05-20T10:31:15;4.88;;;3.22;;
67378;SDS011;54262;44.642;-0.974;2023-05-20T10:33:51;2.88;;;2.53;;
67378;SDS011;54262;44.642;-0.974;2023-05-20T10:36:21;3.58;;;3.28;;
67378;SDS011;54262;44.642;-0.974;2023-05-20T10:38:52;6.30;;;2.83;;
67378;SDS011;54262;44.642;-0.974;2023-05-20T10:41:22;5.53;;;3.38;;
67378;SDS011;54262;44.642;-0.974;2023-05-20T10:44:00;5.47;;;3.10;;
67378;SDS011;54262;44.642;-0.974;2023-05-20T10:46:32;3.15;;;2.88;;
67378;SDS011;54262;44.642;-0.974;2023-05-20T10:48:58;5.35;;;3.15;;
67378;SDS011;54262;44.642;-0.974;2023-05-20T10:51:27;3.97;;;3.67;;
67378;SDS011;54262;44.642;-0.974;2023-05-20T10:53:55;3.53;;;3.22;;
67378;SDS011;54262;44.642;-0.974;2023-05-20T10:56:22;3.80;;;2.97;;
67378;SDS011;54262;44.642;-0.974;2023-05-20T10:58:49;3.75;;;3.40;;
67378;SDS011;54262;44.642;-0.974;2023-05-20T11:01:16;7.07;;;3.22;;
67378;SDS011;54262;44.642;-0.974;2023-05-20T11:03:46;3.30;;;3.05;;
67378;SDS011;54262;44.642;-0.974;2023-05-20T11:06:14;3.97;;;2.90;;
67378;SDS011;54262;44.642;-0.974;2023-05-20T11:08:43;3.70;;;3.40;;
67378;SDS011;54262;44.642;-0.974;2023-05-20T11:11:10;5.38;;;3.58;;
67378;SDS011;54262;44.642;-0.974;2023-05-20T11:13:37;3.28;;;3.00;;
67378;SDS011;54262;44.642;-0.974;2023-05-20T11:16:03;6.35;;;3.55;;
67378;SDS011;54262;44.642;-0.974;2023-05-20T11:18:29;4.70;;;3.05;;
67378;SDS011;54262;44.642;-0.974;2023-05-20T11:20:59;3.70;;;3.00;;
67378;SDS011;54262;44.642;-0.974;2023-05-20T11:23:26;2.83;;;2.63;;
67378;SDS011;54262;44.642;-0.974;2023-05-20T11:25:53;3.25;;;2.70;;
67378;SDS011;54262;44.642;-0.974;2023-05-20T11:28:20;3.70;;;3.40;;
67378;SDS011;54262;44.642;-0.974;2023-05-20T11:30:47;3.75;;;2.67;;
67378;SDS011;54262;44.642;-0.974;2023-05-20T11:33:14;4.85;;;3.13;;
67378;SDS011;54262;44.642;-0.974;2023-05-20T11:35:45;4.25;;;3.13;;
67378;SDS011;54262;44.642;-0.974;2023-05-20T11:38:11;3.20;;;2.90;;
67378;SDS011;54262;44.642;-0.974;2023-05-20T11:40:41;2.30;;;2.20;;
67378;SDS011;54262;44.642;-0.974;2023-05-20T11:43:11;2.92;;;2.05;;
67378;SDS011;54262;44.642;-0.974;2023-05-20T11:45:42;3.50;;;3.20;;
67378;SDS011;54262;44.642;-0.974;2023-05-20T11:48:11;7.78;;;3.22;;
67378;SDS011;54262;44.642;-0.974;2023-05-20T11:50:40;2.97;;;2.78;;
67378;SDS011;54262;44.642;-0.974;2023-05-20T11:53:08;3.75;;;2.97;;
67378;SDS011;54262;44.642;-0.974;2023-05-20T11:55:49;5.00;;;3.00;;
67378;SDS011;54262;44.642;-0.974;2023-05-20T11:58:17;2.28;;;2.17;;
67378;SDS011;54262;44.642;-0.974;2023-05-20T12:00:44;3.28;;;3.03;;
67378;SDS011;54262;44.642;-0.974;2023-05-20T12:03:10;6.22;;;2.90;;
67378;SDS011;54262;44.642;-0.974;2023-05-20T12:05:36;3.75;;;2.20;;
67378;SDS011;54262;44.642;-0.974;2023-05-20T12:08:03;2.65;;;2.30;;
67378;SDS011;54262;44.642;-0.974;2023-05-20T12:10:29;4.72;;;3.70;;
67378;SDS011;54262;44.642;-0.974;2023-05-20T12:12:55;2.47;;;2.38;;
67378;SDS011;54262;44.642;-0.974;2023-05-20T12:15:21;3.05;;;2.58;;
67378;SDS011;54262;44.642;-0.974;2023-05-20T12:17:47;4.28;;;2.70;;
67378;SDS011;54262;44.642;-0.974;2023-05-20T12:20:15;4.07;;;2.72;;
67378;SDS011;54262;44.642;-0.974;2023-05-20T12:22:44;5.70;;;2.47;;
67378;SDS011;54262;44.642;-0.974;2023-05-20T12:25:11;2.47;;;2.28;;
67378;SDS011;54262;44.642;-0.974;2023-05-20T12:27:38;3.00;;;2.80;;
67378;SDS011;54262;44.642;-0.974;2023-05-20T12:30:04;2.17;;;1.98;;
67378;SDS011;54262;44.642;-0.974;2023-05-20T12:32:31;2.75;;;2.65;;
67378;SDS011;54262;44.642;-0.974;2023-05-20T12:34:57;3.20;;;2.70;;
67378;SDS011;54262;44.642;-0.974;2023-05-20T12:37:22;3.28;;;2.85;;
67378;SDS011;54262;44.642;-0.974;2023-05-20T12:39:48;2.50;;;2.22;;
67378;SDS011;54262;44.642;-0.974;2023-05-20T12:42:14;4.45;;;3.17;;
67378;SDS011;54262;44.642;-0.974;2023-05-20T12:44:40;3.70;;;2.47;;
67378;SDS011;54262;44.642;-0.974;2023-05-20T12:47:05;2.97;;;2.47;;
67378;SDS011;54262;44.642;-0.974;2023-05-20T12:49:33;3.22;;;2.10;;
67378;SDS011;54262;44.642;-0.974;2023-05-20T12:51:59;3.28;;;2.65;;
67378;SDS011;54262;44.642;-0.974;2023-05-20T12:54:24;2.42;;;1.92;;
67378;SDS011;54262;44.642;-0.974;2023-05-20T12:56:53;3.00;;;2.55;;
67378;SDS011;54262;44.642;-0.974;2023-05-20T12:59:19;10.55;;;2.38;;
67378;SDS011;54262;44.642;-0.974;2023-05-20T13:01:45;4.05;;;2.25;;
67378;SDS011;54262;44.642;-0.974;2023-05-20T13:04:11;2.20;;;2.00;;
67378;SDS011;54262;44.642;-0.974;2023-05-20T13:06:36;3.00;;;2.45;;
67378;SDS011;54262;44.642;-0.974;2023-05-20T13:09:02;2.70;;;2.50;;
67378;SDS011;54262;44.642;-0.974;2023-05-20T13:11:28;2.78;;;2.08;;
67378;SDS011;54262;44.642;-0.974;2023-05-20T13:13:54;3.40;;;2.67;;
67378;SDS011;54262;44.642;-0.974;2023-05-20T13:16:23;2.67;;;2.40;;
67378;SDS011;54262;44.642;-0.974;2023-05-20T13:18:49;5.05;;;2.72;;
67378;SDS011;54262;44.642;-0.974;2023-05-20T13:21:15;2.45;;;2.25;;
67378;SDS011;54262;44.642;-0.974;2023-05-20T13:23:41;2.30;;;2.10;;
67378;SDS011;54262;44.642;-0.974;2023-05-20T13:26:07;7.22;;;2.55;;
67378;SDS011;54262;44.642;-0.974;2023-05-20T13:28:33;2.78;;;2.50;;
67378;SDS011;54262;44.642;-0.974;2023-05-20T13:31:03;2.53;;;2.33;;
67378;SDS011;54262;44.642;-0.974;2023-05-20T13:33:30;2.55;;;2.35;;
67378;SDS011;54262;44.642;-0.974;2023-05-20T13:35:55;2.72;;;2.22;;
67378;SDS011;54262;44.642;-0.974;2023-05-20T13:38:21;3.22;;;2.92;;
67378;SDS011;54262;44.642;-0.974;2023-05-20T13:40:47;4.22;;;1.83;;
67378;SDS011;54262;44.642;-0.974;2023-05-20T13:43:13;1.92;;;1.83;;
67378;SDS011;54262;44.642;-0.974;2023-05-20T13:45:39;4.00;;;2.30;;
67378;SDS011;54262;44.642;-0.974;2023-05-20T13:48:06;2.10;;;1.92;;
67378;SDS011;54262;44.642;-0.974;2023-05-20T13:50:34;2.38;;;2.28;;
67378;SDS011;54262;44.642;-0.974;2023-05-20T13:53:00;2.53;;;2.33;;
67378;SDS011;54262;44.642;-0.974;2023-05-20T13:55:25;2.05;;;1.95;;
67378;SDS011;54262;44.642;-0.974;2023-05-20T13:57:53;2.60;;;2.50;;
67378;SDS011;54262;44.642;-0.974;2023-05-20T14:00:19;3.03;;;2.15;;
67378;SDS011;54262;44.642;-0.974;2023-05-20T14:02:45;3.10;;;2.65;;
67378;SDS011;54262;44.642;-0.974;2023-05-20T14:05:11;4.30;;;2.90;;
67378;SDS011;54262;44.642;-0.974;2023-05-20T14:07:37;3.85;;;2.55;;
67378;SDS011;54262;44.642;-0.974;2023-05-20T14:10:03;3.70;;;2.60;;
67378;SDS011;54262;44.642;-0.974;2023-05-20T14:12:30;2.80;;;2.53;;
67378;SDS011;54262;44.642;-0.974;2023-05-20T14:14:56;3.45;;;3.15;;
67378;SDS011;54262;44.642;-0.974;2023-05-20T14:17:21;2.25;;;2.05;;
67378;SDS011;54262;44.642;-0.974;2023-05-20T14:19:47;2.45;;;2.25;;
67378;SDS011;54262;44.642;-0.974;2023-05-20T14:22:13;2.20;;;1.98;;
67378;SDS011;54262;44.642;-0.974;2023-05-20T14:24:39;2.08;;;1.92;;
67378;SDS011;54262;44.642;-0.974;2023-05-20T14:27:05;4.80;;;3.70;;
67378;SDS011;54262;44.642;-0.974;2023-05-20T14:29:31;2.00;;;1.90;;
67378;SDS011;54262;44.642;-0.974;2023-05-20T14:31:56;1.83;;;1.67;;
67378;SDS011;54262;44.642;-0.974;2023-05-20T14:34:22;5.10;;;2.20;;
67378;SDS011;54262;44.642;-0.974;2023-05-20T14:36:48;4.50;;;2.40;;
67378;SDS011;54262;44.642;-0.974;2023-05-20T14:39:13;3.92;;;2.47;;
67378;SDS011;54262;44.642;-0.974;2023-05-20T14:41:39;4.50;;;3.28;;
67378;SDS011;54262;44.642;-0.974;2023-05-20T14:44:05;2.05;;;1.95;;
67378;SDS011;54262;44.642;-0.974;2023-05-20T14:46:30;4.07;;;2.55;;